sensor_id;sensor_type;location;lat;lon;timestamp;P1;durP1;ratioP1;P2;durP2;ratioP2
2187;SDS011;1100;52.014;8.540;2022-10-18T00:01:40;32.08;;;17.30;;
2187;SDS011;1100;52.014;8.540;2022-10-18T00:04:06;35.53;;;17.63;;
2187;SDS011;1100;52.014;8.540;2022-10-18T00:06:31;31.87;;;17.10;;
2187;SDS011;1100;52.014;8.540;2022-10-18T00:08:57;34.78;;;17.80;;
2187;SDS011;1100;52.014;8.540;2022-10-18T00:11:22;31.80;;;17.10;;
2187;SDS011;1100;52.014;8.540;2022-10-18T00:13:48;35.47;;;17.23;;
2187;SDS011;1100;52.014;8.540;2022-10-18T00:16:14;36.05;;;17.65;;
2187;SDS011;1100;52.014;8.540;2022-10-18T00:18:40;31.40;;;16.53;;
2187;SDS011;1100;52.014;8.540;2022-10-18T00:21:10;31.17;;;17.33;;
2187;SDS011;1100;52.014;8.540;2022-10-18T00:23:39;30.90;;;16.80;;
2187;SDS011;1100;52.014;8.540;2022-10-18T00:26:06;29.42;;;15.48;;
2187;SDS011;1100;52.014;8.540;2022-10-18T00:28:33;33.33;;;17.38;;
2187;SDS011;1100;52.014;8.540;2022-10-18T00:31:22;30.52;;;16.35;;
2187;SDS011;1100;52.014;8.540;2022-10-18T00:33:51;35.97;;;16.77;;
2187;SDS011;1100;52.014;8.540;2022-10-18T00:36:18;34.78;;;16.58;;
2187;SDS011;1100;52.014;8.540;2022-10-18T00:38:44;33.65;;;16.45;;
2187;SDS011;1100;52.014;8.540;2022-10-18T00:41:12;32.55;;;16.02;;
2187;SDS011;1100;52.014;8.540;2022-10-18T00:43:52;33.63;;;17.45;;
2187;SDS011;1100;52.014;8.540;2022-10-18T00:46:18;32.63;;;16.93;;
2187;SDS011;1100;52.014;8.540;2022-10-18T00:48:43;35.77;;;17.13;;
2187;SDS011;1100;52.014;8.540;2022-10-18T00:51:09;33.45;;;17.33;;
2187;SDS011;1100;52.014;8.540;2022-10-18T00:53:34;33.83;;;15.93;;
2187;SDS011;1100;52.014;8.540;2022-10-18T00:56:00;35.45;;;17.60;;
2187;SDS011;1100;52.014;8.540;2022-10-18T00:58:26;30.60;;;15.93;;
2187;SDS011;1100;52.014;8.540;2022-10-18T01:00:51;31.63;;;15.02;;
2187;SDS011;1100;52.014;8.540;2022-10-18T01:03:16;31.60;;;15.80;;
2187;SDS011;1100;52.014;8.540;2022-10-18T01:05:42;34.47;;;16.40;;
2187;SDS011;1100;52.014;8.540;2022-10-18T01:11:14;31.10;;;15.43;;
2187;SDS011;1100;52.014;8.540;2022-10-18T01:16:12;34.42;;;16.73;;
2187;SDS011;1100;52.014;8.540;2022-10-18T01:19:15;36.47;;;17.40;;
2187;SDS011;1100;52.014;8.540;2022-10-18T01:22:00;37.00;;;16.65;;
2187;SDS011;1100;52.014;8.540;2022-10-18T01:32:43;36.10;;;17.88;;
2187;SDS011;1100;52.014;8.540;2022-10-18T01:35:14;34.05;;;16.60;;
2187;SDS011;1100;52.014;8.540;2022-10-18T01:37:44;33.07;;;16.73;;
2187;SDS011;1100;52.014;8.540;2022-10-18T01:40:13;32.55;;;16.55;;
2187;SDS011;1100;52.014;8.540;2022-10-18T01:42:44;37.92;;;18.13;;
2187;SDS011;1100;52.014;8.540;2022-10-18T01:45:12;36.13;;;16.88;;
2187;SDS011;1100;52.014;8.540;2022-10-18T01:47:39;38.03;;;18.08;;
2187;SDS011;1100;52.014;8.540;2022-10-18T01:50:08;32.87;;;16.97;;
2187;SDS011;1100;52.014;8.540;2022-10-18T01:52:33;35.58;;;17.08;;
2187;SDS011;1100;52.014;8.540;2022-10-18T01:54:59;31.50;;;16.27;;
2187;SDS011;1100;52.014;8.540;2022-10-18T02:00:30;34.67;;;16.45;;
2187;SDS011;1100;52.014;8.540;2022-10-18T02:03:12;33.17;;;15.77;;
2187;SDS011;1100;52.014;8.540;2022-10-18T02:05:51;34.85;;;16.92;;
2187;SDS011;1100;52.014;8.540;2022-10-18T02:08:38;33.30;;;15.10;;
2187;SDS011;1100;52.014;8.540;2022-10-18T02:11:09;31.93;;;15.10;;
2187;SDS011;1100;52.014;8.540;2022-10-18T02:13:53;31.88;;;14.60;;
2187;SDS011;1100;52.014;8.540;2022-10-18T02:16:24;36.10;;;16.67;;
2187;SDS011;1100;52.014;8.540;2022-10-18T02:19:04;36.30;;;16.30;;
2187;SDS011;1100;52.014;8.540;2022-10-18T02:21:34;34.20;;;17.00;;
2187;SDS011;1100;52.014;8.540;2022-10-18T02:24:02;35.00;;;16.37;;
2187;SDS011;1100;52.014;8.540;2022-10-18T02:26:29;36.50;;;17.45;;
2187;SDS011;1100;52.014;8.540;2022-10-18T02:28:55;38.22;;;18.02;;
2187;SDS011;1100;52.014;8.540;2022-10-18T02:31:24;36.10;;;18.10;;
2187;SDS011;1100;52.014;8.540;2022-10-18T02:33:57;36.97;;;17.25;;
2187;SDS011;1100;52.014;8.540;2022-10-18T02:36:37;34.50;;;16.07;;
2187;SDS011;1100;52.014;8.540;2022-10-18T02:39:10;34.08;;;16.15;;
2187;SDS011;1100;52.014;8.540;2022-10-18T02:41:38;36.15;;;17.67;;
2187;SDS011;1100;52.014;8.540;2022-10-18T02:44:04;36.53;;;17.42;;
2187;SDS011;1100;52.014;8.540;2022-10-18T02:46:29;33.17;;;16.70;;
2187;SDS011;1100;52.014;8.540;2022-10-18T02:48:55;34.07;;;16.27;;
2187;SDS011;1100;52.014;8.540;2022-10-18T02:51:20;31.93;;;15.07;;
2187;SDS011;1100;52.014;8.540;2022-10-18T02:53:45;32.20;;;15.45;;
2187;SDS011;1100;52.014;8.540;2022-10-18T02:56:11;27.53;;;13.87;;
2187;SDS011;1100;52.014;8.540;2022-10-18T02:58:36;26.37;;;13.73;;
2187;SDS011;1100;52.014;8.540;2022-10-18T03:01:01;28.27;;;13.07;;
2187;SDS011;1100;52.014;8.540;2022-10-18T03:03:27;30.87;;;13.50;;
2187;SDS011;1100;52.014;8.540;2022-10-18T03:05:52;24.90;;;13.30;;
2187;SDS011;1100;52.014;8.540;2022-10-18T03:08:18;26.60;;;12.90;;
2187;SDS011;1100;52.014;8.540;2022-10-18T03:10:44;29.10;;;13.57;;
2187;SDS011;1100;52.014;8.540;2022-10-18T03:13:10;25.25;;;13.18;;
2187;SDS011;1100;52.014;8.540;2022-10-18T03:15:35;26.60;;;13.70;;
2187;SDS011;1100;52.014;8.540;2022-10-18T03:18:01;24.80;;;12.17;;
2187;SDS011;1100;52.014;8.540;2022-10-18T03:20:26;26.67;;;12.70;;
2187;SDS011;1100;52.014;8.540;2022-10-18T03:22:52;24.73;;;12.83;;
2187;SDS011;1100;52.014;8.540;2022-10-18T03:25:17;25.03;;;12.97;;
2187;SDS011;1100;52.014;8.540;2022-10-18T03:27:42;26.13;;;13.70;;
2187;SDS011;1100;52.014;8.540;2022-10-18T03:30:08;28.73;;;13.13;;
2187;SDS011;1100;52.014;8.540;2022-10-18T03:32:35;22.17;;;11.43;;
2187;SDS011;1100;52.014;8.540;2022-10-18T03:35:01;26.85;;;12.77;;
2187;SDS011;1100;52.014;8.540;2022-10-18T03:37:27;24.02;;;11.70;;
2187;SDS011;1100;52.014;8.540;2022-10-18T03:39:52;25.90;;;13.40;;
2187;SDS011;1100;52.014;8.540;2022-10-18T03:42:18;27.30;;;12.90;;
2187;SDS011;1100;52.014;8.540;2022-10-18T03:44:43;27.37;;;12.93;;
2187;SDS011;1100;52.014;8.540;2022-10-18T03:47:08;28.17;;;13.07;;
2187;SDS011;1100;52.014;8.540;2022-10-18T03:49:33;25.30;;;12.60;;
2187;SDS011;1100;52.014;8.540;2022-10-18T03:51:59;27.30;;;13.53;;
2187;SDS011;1100;52.014;8.540;2022-10-18T03:54:24;30.33;;;13.67;;
2187;SDS011;1100;52.014;8.540;2022-10-18T03:56:49;29.83;;;14.03;;
2187;SDS011;1100;52.014;8.540;2022-10-18T03:59:14;26.83;;;12.50;;
2187;SDS011;1100;52.014;8.540;2022-10-18T04:01:41;30.25;;;13.10;;
2187;SDS011;1100;52.014;8.540;2022-10-18T04:04:06;32.90;;;14.90;;
2187;SDS011;1100;52.014;8.540;2022-10-18T04:06:32;35.88;;;15.25;;
2187;SDS011;1100;52.014;8.540;2022-10-18T04:08:57;30.17;;;14.77;;
2187;SDS011;1100;52.014;8.540;2022-10-18T04:11:22;32.00;;;15.17;;
2187;SDS011;1100;52.014;8.540;2022-10-18T04:13:47;31.50;;;14.17;;
2187;SDS011;1100;52.014;8.540;2022-10-18T04:16:14;30.77;;;14.05;;
2187;SDS011;1100;52.014;8.540;2022-10-18T04:18:39;31.60;;;14.80;;
2187;SDS011;1100;52.014;8.540;2022-10-18T04:21:04;34.63;;;14.93;;
2187;SDS011;1100;52.014;8.540;2022-10-18T04:23:30;29.67;;;14.60;;
2187;SDS011;1100;52.014;8.540;2022-10-18T04:25:55;29.37;;;14.00;;
2187;SDS011;1100;52.014;8.540;2022-10-18T04:28:20;30.27;;;14.27;;
2187;SDS011;1100;52.014;8.540;2022-10-18T04:30:49;34.90;;;15.43;;
2187;SDS011;1100;52.014;8.540;2022-10-18T04:33:16;29.05;;;13.70;;
2187;SDS011;1100;52.014;8.540;2022-10-18T04:35:41;29.77;;;14.52;;
2187;SDS011;1100;52.014;8.540;2022-10-18T04:38:07;31.10;;;14.30;;
2187;SDS011;1100;52.014;8.540;2022-10-18T04:40:33;31.40;;;15.07;;
2187;SDS011;1100;52.014;8.540;2022-10-18T04:42:58;35.83;;;15.97;;
2187;SDS011;1100;52.014;8.540;2022-10-18T04:45:23;37.07;;;16.63;;
2187;SDS011;1100;52.014;8.540;2022-10-18T04:47:49;34.60;;;16.40;;
2187;SDS011;1100;52.014;8.540;2022-10-18T04:50:14;34.42;;;15.77;;
2187;SDS011;1100;52.014;8.540;2022-10-18T04:52:40;32.27;;;14.90;;
2187;SDS011;1100;52.014;8.540;2022-10-18T04:55:05;36.63;;;16.90;;
2187;SDS011;1100;52.014;8.540;2022-10-18T04:57:31;36.07;;;16.43;;
2187;SDS011;1100;52.014;8.540;2022-10-18T04:59:56;33.97;;;15.48;;
2187;SDS011;1100;52.014;8.540;2022-10-18T05:02:21;33.73;;;15.30;;
2187;SDS011;1100;52.014;8.540;2022-10-18T05:04:47;34.93;;;14.87;;
2187;SDS011;1100;52.014;8.540;2022-10-18T05:07:12;32.30;;;14.93;;
2187;SDS011;1100;52.014;8.540;2022-10-18T05:09:37;33.23;;;15.03;;
2187;SDS011;1100;52.014;8.540;2022-10-18T05:12:02;34.83;;;15.00;;
2187;SDS011;1100;52.014;8.540;2022-10-18T05:14:28;35.93;;;15.73;;
2187;SDS011;1100;52.014;8.540;2022-10-18T05:16:53;36.87;;;15.60;;
2187;SDS011;1100;52.014;8.540;2022-10-18T05:19:18;34.20;;;15.37;;
2187;SDS011;1100;52.014;8.540;2022-10-18T05:21:44;36.47;;;15.00;;
2187;SDS011;1100;52.014;8.540;2022-10-18T05:24:12;38.57;;;16.20;;
2187;SDS011;1100;52.014;8.540;2022-10-18T05:26:38;34.42;;;14.35;;
2187;SDS011;1100;52.014;8.540;2022-10-18T05:29:03;38.30;;;15.80;;
2187;SDS011;1100;52.014;8.540;2022-10-18T05:31:28;36.87;;;15.60;;
2187;SDS011;1100;52.014;8.540;2022-10-18T05:33:53;35.33;;;13.70;;
2187;SDS011;1100;52.014;8.540;2022-10-18T05:36:19;34.30;;;14.97;;
2187;SDS011;1100;52.014;8.540;2022-10-18T05:38:44;33.40;;;14.37;;
2187;SDS011;1100;52.014;8.540;2022-10-18T05:41:11;36.65;;;15.85;;
2187;SDS011;1100;52.014;8.540;2022-10-18T05:43:37;29.67;;;13.43;;
2187;SDS011;1100;52.014;8.540;2022-10-18T05:46:03;35.40;;;15.23;;
2187;SDS011;1100;52.014;8.540;2022-10-18T05:48:31;34.88;;;14.18;;
2187;SDS011;1100;52.014;8.540;2022-10-18T05:50:57;31.73;;;14.17;;
2187;SDS011;1100;52.014;8.540;2022-10-18T05:53:23;30.05;;;14.52;;
2187;SDS011;1100;52.014;8.540;2022-10-18T05:55:48;32.53;;;13.87;;
2187;SDS011;1100;52.014;8.540;2022-10-18T05:58:14;33.33;;;14.07;;
2187;SDS011;1100;52.014;8.540;2022-10-18T06:00:39;36.33;;;15.23;;
2187;SDS011;1100;52.014;8.540;2022-10-18T06:03:04;38.43;;;15.40;;
2187;SDS011;1100;52.014;8.540;2022-10-18T06:05:30;33.07;;;15.87;;
2187;SDS011;1100;52.014;8.540;2022-10-18T06:07:55;35.33;;;14.53;;
2187;SDS011;1100;52.014;8.540;2022-10-18T06:10:21;35.70;;;14.40;;
2187;SDS011;1100;52.014;8.540;2022-10-18T06:12:46;33.47;;;14.80;;
2187;SDS011;1100;52.014;8.540;2022-10-18T06:15:12;32.93;;;13.20;;
2187;SDS011;1100;52.014;8.540;2022-10-18T06:17:37;36.97;;;14.73;;
2187;SDS011;1100;52.014;8.540;2022-10-18T06:20:03;32.42;;;13.25;;
2187;SDS011;1100;52.014;8.540;2022-10-18T06:22:29;36.40;;;15.03;;
2187;SDS011;1100;52.014;8.540;2022-10-18T06:24:54;33.67;;;14.37;;
2187;SDS011;1100;52.014;8.540;2022-10-18T06:27:19;31.97;;;14.53;;
2187;SDS011;1100;52.014;8.540;2022-10-18T06:29:44;31.07;;;14.43;;
2187;SDS011;1100;52.014;8.540;2022-10-18T06:32:10;35.20;;;13.47;;
2187;SDS011;1100;52.014;8.540;2022-10-18T06:34:35;39.67;;;14.37;;
2187;SDS011;1100;52.014;8.540;2022-10-18T06:37:00;34.50;;;14.43;;
2187;SDS011;1100;52.014;8.540;2022-10-18T06:39:26;34.40;;;13.27;;
2187;SDS011;1100;52.014;8.540;2022-10-18T06:41:51;32.85;;;14.10;;
2187;SDS011;1100;52.014;8.540;2022-10-18T06:44:17;30.40;;;12.63;;
2187;SDS011;1100;52.014;8.540;2022-10-18T06:46:43;31.93;;;13.10;;
2187;SDS011;1100;52.014;8.540;2022-10-18T06:49:10;33.05;;;14.00;;
2187;SDS011;1100;52.014;8.540;2022-10-18T06:51:36;32.88;;;13.30;;
2187;SDS011;1100;52.014;8.540;2022-10-18T06:54:02;27.27;;;11.90;;
2187;SDS011;1100;52.014;8.540;2022-10-18T06:56:28;27.95;;;11.88;;
2187;SDS011;1100;52.014;8.540;2022-10-18T06:58:53;24.97;;;10.93;;
2187;SDS011;1100;52.014;8.540;2022-10-18T07:01:19;28.03;;;12.03;;
2187;SDS011;1100;52.014;8.540;2022-10-18T07:03:46;31.93;;;13.10;;
2187;SDS011;1100;52.014;8.540;2022-10-18T07:06:13;33.00;;;13.60;;
2187;SDS011;1100;52.014;8.540;2022-10-18T07:08:43;27.40;;;12.80;;
2187;SDS011;1100;52.014;8.540;2022-10-18T07:11:16;28.58;;;12.32;;
2187;SDS011;1100;52.014;8.540;2022-10-18T07:13:43;29.83;;;12.50;;
2187;SDS011;1100;52.014;8.540;2022-10-18T07:16:10;36.35;;;13.55;;
2187;SDS011;1100;52.014;8.540;2022-10-18T07:18:40;28.67;;;11.43;;
2187;SDS011;1100;52.014;8.540;2022-10-18T07:21:08;32.63;;;13.02;;
2187;SDS011;1100;52.014;8.540;2022-10-18T07:23:36;31.92;;;12.65;;
2187;SDS011;1100;52.014;8.540;2022-10-18T07:26:05;27.90;;;10.88;;
2187;SDS011;1100;52.014;8.540;2022-10-18T07:28:36;30.92;;;11.30;;
2187;SDS011;1100;52.014;8.540;2022-10-18T07:31:06;35.33;;;13.40;;
2187;SDS011;1100;52.014;8.540;2022-10-18T07:33:32;27.47;;;11.83;;
2187;SDS011;1100;52.014;8.540;2022-10-18T07:36:02;30.63;;;12.05;;
2187;SDS011;1100;52.014;8.540;2022-10-18T07:38:28;28.92;;;11.68;;
2187;SDS011;1100;52.014;8.540;2022-10-18T07:41:00;28.30;;;11.53;;
2187;SDS011;1100;52.014;8.540;2022-10-18T07:43:27;30.58;;;12.70;;
2187;SDS011;1100;52.014;8.540;2022-10-18T07:45:57;28.47;;;11.37;;
2187;SDS011;1100;52.014;8.540;2022-10-18T07:48:23;27.52;;;11.50;;
2187;SDS011;1100;52.014;8.540;2022-10-18T07:50:49;28.50;;;12.33;;
2187;SDS011;1100;52.014;8.540;2022-10-18T07:53:14;28.83;;;10.57;;
2187;SDS011;1100;52.014;8.540;2022-10-18T07:55:40;27.40;;;11.67;;
2187;SDS011;1100;52.014;8.540;2022-10-18T07:58:05;30.50;;;12.47;;
2187;SDS011;1100;52.014;8.540;2022-10-18T08:00:31;29.33;;;12.68;;
2187;SDS011;1100;52.014;8.540;2022-10-18T08:02:56;31.03;;;12.10;;
2187;SDS011;1100;52.014;8.540;2022-10-18T08:05:23;31.67;;;12.73;;
2187;SDS011;1100;52.014;8.540;2022-10-18T08:07:48;28.13;;;11.27;;
2187;SDS011;1100;52.014;8.540;2022-10-18T08:10:14;33.47;;;12.68;;
2187;SDS011;1100;52.014;8.540;2022-10-18T08:12:39;29.00;;;11.33;;
2187;SDS011;1100;52.014;8.540;2022-10-18T08:15:05;30.43;;;11.23;;
2187;SDS011;1100;52.014;8.540;2022-10-18T08:17:31;31.67;;;12.65;;
2187;SDS011;1100;52.014;8.540;2022-10-18T08:19:56;27.87;;;12.03;;
2187;SDS011;1100;52.014;8.540;2022-10-18T08:22:21;28.23;;;11.50;;
2187;SDS011;1100;52.014;8.540;2022-10-18T08:24:47;24.93;;;11.47;;
2187;SDS011;1100;52.014;8.540;2022-10-18T08:27:13;25.13;;;10.95;;
2187;SDS011;1100;52.014;8.540;2022-10-18T08:29:38;26.60;;;10.47;;
2187;SDS011;1100;52.014;8.540;2022-10-18T08:32:03;31.67;;;11.47;;
2187;SDS011;1100;52.014;8.540;2022-10-18T08:34:29;27.23;;;10.40;;
2187;SDS011;1100;52.014;8.540;2022-10-18T08:36:54;27.07;;;11.27;;
2187;SDS011;1100;52.014;8.540;2022-10-18T08:39:20;26.87;;;11.40;;
2187;SDS011;1100;52.014;8.540;2022-10-18T08:44:49;20.27;;;9.13;;
2187;SDS011;1100;52.014;8.540;2022-10-18T08:50:23;21.70;;;9.30;;
2187;SDS011;1100;52.014;8.540;2022-10-18T08:52:53;24.77;;;9.60;;
2187;SDS011;1100;52.014;8.540;2022-10-18T08:55:25;23.75;;;10.32;;
2187;SDS011;1100;52.014;8.540;2022-10-18T08:58:03;24.98;;;11.05;;
2187;SDS011;1100;52.014;8.540;2022-10-18T09:00:46;29.05;;;12.68;;
2187;SDS011;1100;52.014;8.540;2022-10-18T09:03:46;23.25;;;11.13;;
2187;SDS011;1100;52.014;8.540;2022-10-18T09:09:33;29.77;;;11.70;;
2187;SDS011;1100;52.014;8.540;2022-10-18T09:11:43;29.58;;;13.50;;
2187;SDS011;1100;52.014;8.540;2022-10-18T09:23:09;24.73;;;11.50;;
2187;SDS011;1100;52.014;8.540;2022-10-18T09:27:49;24.17;;;10.93;;
2187;SDS011;1100;52.014;8.540;2022-10-18T09:33:25;24.35;;;10.70;;
2187;SDS011;1100;52.014;8.540;2022-10-18T09:36:03;18.95;;;9.63;;
2187;SDS011;1100;52.014;8.540;2022-10-18T09:38:40;18.00;;;8.93;;
2187;SDS011;1100;52.014;8.540;2022-10-18T09:41:14;20.58;;;9.70;;
2187;SDS011;1100;52.014;8.540;2022-10-18T09:43:53;20.20;;;9.47;;
2187;SDS011;1100;52.014;8.540;2022-10-18T09:46:26;19.98;;;9.88;;
2187;SDS011;1100;52.014;8.540;2022-10-18T09:51:46;22.45;;;10.10;;
2187;SDS011;1100;52.014;8.540;2022-10-18T09:56:49;19.87;;;9.70;;
2187;SDS011;1100;52.014;8.540;2022-10-18T10:01:59;20.10;;;9.52;;
2187;SDS011;1100;52.014;8.540;2022-10-18T10:04:24;20.87;;;9.87;;
2187;SDS011;1100;52.014;8.540;2022-10-18T10:06:54;17.65;;;9.38;;
2187;SDS011;1100;52.014;8.540;2022-10-18T10:09:24;22.05;;;10.48;;
2187;SDS011;1100;52.014;8.540;2022-10-18T10:11:53;23.47;;;11.40;;
2187;SDS011;1100;52.014;8.540;2022-10-18T10:14:20;25.17;;;11.40;;
2187;SDS011;1100;52.014;8.540;2022-10-18T10:16:57;24.30;;;11.35;;
2187;SDS011;1100;52.014;8.540;2022-10-18T10:19:27;28.98;;;12.15;;
2187;SDS011;1100;52.014;8.540;2022-10-18T10:21:54;24.55;;;12.57;;
2187;SDS011;1100;52.014;8.540;2022-10-18T10:25:09;27.60;;;11.97;;
2187;SDS011;1100;52.014;8.540;2022-10-18T10:27:17;24.58;;;11.60;;
2187;SDS011;1100;52.014;8.540;2022-10-18T10:29:54;26.45;;;11.65;;
2187;SDS011;1100;52.014;8.540;2022-10-18T10:32:21;23.90;;;10.90;;
2187;SDS011;1100;52.014;8.540;2022-10-18T10:34:49;24.75;;;11.73;;
2187;SDS011;1100;52.014;8.540;2022-10-18T10:42:36;22.95;;;11.10;;
2187;SDS011;1100;52.014;8.540;2022-10-18T10:45:12;27.48;;;12.77;;
2187;SDS011;1100;52.014;8.540;2022-10-18T10:47:37;29.60;;;13.67;;
2187;SDS011;1100;52.014;8.540;2022-10-18T10:50:08;30.50;;;14.20;;
2187;SDS011;1100;52.014;8.540;2022-10-18T10:52:36;29.15;;;13.93;;
2187;SDS011;1100;52.014;8.540;2022-10-18T10:55:04;27.30;;;12.93;;
2187;SDS011;1100;52.014;8.540;2022-10-18T10:57:41;29.23;;;13.20;;
2187;SDS011;1100;52.014;8.540;2022-10-18T11:00:11;35.72;;;14.25;;
2187;SDS011;1100;52.014;8.540;2022-10-18T11:03:19;30.02;;;13.85;;
2187;SDS011;1100;52.014;8.540;2022-10-18T11:05:51;26.67;;;12.90;;
2187;SDS011;1100;52.014;8.540;2022-10-18T11:08:23;27.55;;;12.07;;
2187;SDS011;1100;52.014;8.540;2022-10-18T11:16:36;25.55;;;11.48;;
2187;SDS011;1100;52.014;8.540;2022-10-18T11:19:33;28.65;;;11.82;;
2187;SDS011;1100;52.014;8.540;2022-10-18T11:22:03;26.83;;;12.10;;
2187;SDS011;1100;52.014;8.540;2022-10-18T11:24:33;35.43;;;12.50;;
2187;SDS011;1100;52.014;8.540;2022-10-18T11:27:05;28.80;;;12.00;;
2187;SDS011;1100;52.014;8.540;2022-10-18T11:29:50;30.05;;;12.00;;
2187;SDS011;1100;52.014;8.540;2022-10-18T11:37:55;28.23;;;10.87;;
2187;SDS011;1100;52.014;8.540;2022-10-18T11:46:01;25.52;;;9.35;;
2187;SDS011;1100;52.014;8.540;2022-10-18T11:51:14;26.07;;;9.83;;
2187;SDS011;1100;52.014;8.540;2022-10-18T11:53:56;21.23;;;8.68;;
2187;SDS011;1100;52.014;8.540;2022-10-18T11:56:52;19.58;;;8.75;;
2187;SDS011;1100;52.014;8.540;2022-10-18T11:59:35;26.25;;;9.35;;
2187;SDS011;1100;52.014;8.540;2022-10-18T12:04:46;20.17;;;8.20;;
2187;SDS011;1100;52.014;8.540;2022-10-18T12:07:16;19.20;;;7.72;;
2187;SDS011;1100;52.014;8.540;2022-10-18T12:09:45;20.85;;;6.90;;
2187;SDS011;1100;52.014;8.540;2022-10-18T12:15:00;18.42;;;6.75;;
2187;SDS011;1100;52.014;8.540;2022-10-18T12:19:54;14.40;;;6.20;;
2187;SDS011;1100;52.014;8.540;2022-10-18T12:22:39;15.77;;;5.97;;
2187;SDS011;1100;52.014;8.540;2022-10-18T12:25:13;14.77;;;6.05;;
2187;SDS011;1100;52.014;8.540;2022-10-18T12:27:40;16.60;;;5.35;;
2187;SDS011;1100;52.014;8.540;2022-10-18T12:30:19;14.48;;;5.07;;
2187;SDS011;1100;52.014;8.540;2022-10-18T12:32:46;15.33;;;5.00;;
2187;SDS011;1100;52.014;8.540;2022-10-18T12:35:14;16.80;;;5.20;;
2187;SDS011;1100;52.014;8.540;2022-10-18T12:40:44;19.05;;;4.18;;
2187;SDS011;1100;52.014;8.540;2022-10-18T12:43:17;11.77;;;4.25;;
2187;SDS011;1100;52.014;8.540;2022-10-18T12:45:48;15.63;;;4.40;;
2187;SDS011;1100;52.014;8.540;2022-10-18T12:48:27;10.77;;;3.78;;
2187;SDS011;1100;52.014;8.540;2022-10-18T12:50:56;11.75;;;3.33;;
2187;SDS011;1100;52.014;8.540;2022-10-18T12:53:40;15.68;;;2.90;;
2187;SDS011;1100;52.014;8.540;2022-10-18T13:02:25;13.57;;;3.72;;
2187;SDS011;1100;52.014;8.540;2022-10-18T13:09:25;12.40;;;2.67;;
2187;SDS011;1100;52.014;8.540;2022-10-18T13:11:55;11.20;;;2.67;;
2187;SDS011;1100;52.014;8.540;2022-10-18T13:20:50;7.53;;;2.50;;
2187;SDS011;1100;52.014;8.540;2022-10-18T13:23:45;12.32;;;2.88;;
2187;SDS011;1100;52.014;8.540;2022-10-18T13:26:43;12.97;;;2.60;;
2187;SDS011;1100;52.014;8.540;2022-10-18T13:34:52;10.00;;;2.25;;
2187;SDS011;1100;52.014;8.540;2022-10-18T13:37:18;8.00;;;2.63;;
2187;SDS011;1100;52.014;8.540;2022-10-18T13:39:48;10.38;;;2.45;;
2187;SDS011;1100;52.014;8.540;2022-10-18T13:44:39;9.07;;;2.20;;
2187;SDS011;1100;52.014;8.540;2022-10-18T13:47:13;8.85;;;1.77;;
2187;SDS011;1100;52.014;8.540;2022-10-18T14:06:39;9.45;;;2.40;;
2187;SDS011;1100;52.014;8.540;2022-10-18T14:14:57;6.80;;;1.75;;
2187;SDS011;1100;52.014;8.540;2022-10-18T14:19:58;11.18;;;2.03;;
2187;SDS011;1100;52.014;8.540;2022-10-18T14:25:16;6.07;;;1.25;;
2187;SDS011;1100;52.014;8.540;2022-10-18T14:27:44;8.25;;;1.60;;
2187;SDS011;1100;52.014;8.540;2022-10-18T14:30:14;5.17;;;1.20;;
2187;SDS011;1100;52.014;8.540;2022-10-18T14:32:51;10.30;;;1.98;;
2187;SDS011;1100;52.014;8.540;2022-10-18T14:35:25;9.27;;;1.37;;
2187;SDS011;1100;52.014;8.540;2022-10-18T14:37:54;9.73;;;1.67;;
2187;SDS011;1100;52.014;8.540;2022-10-18T14:42:51;8.95;;;1.23;;
2187;SDS011;1100;52.014;8.540;2022-10-18T14:45:17;6.50;;;1.27;;
2187;SDS011;1100;52.014;8.540;2022-10-18T14:47:43;6.80;;;1.77;;
2187;SDS011;1100;52.014;8.540;2022-10-18T14:50:22;7.33;;;1.40;;
2187;SDS011;1100;52.014;8.540;2022-10-18T14:52:50;4.47;;;1.00;;
2187;SDS011;1100;52.014;8.540;2022-10-18T14:55:23;7.77;;;1.03;;
2187;SDS011;1100;52.014;8.540;2022-10-18T14:57:50;7.15;;;1.30;;
2187;SDS011;1100;52.014;8.540;2022-10-18T15:00:21;6.72;;;1.20;;
2187;SDS011;1100;52.014;8.540;2022-10-18T15:02:49;6.10;;;1.30;;
2187;SDS011;1100;52.014;8.540;2022-10-18T15:07:41;6.38;;;0.93;;
2187;SDS011;1100;52.014;8.540;2022-10-18T15:10:09;7.23;;;1.50;;
2187;SDS011;1100;52.014;8.540;2022-10-18T15:12:40;6.22;;;1.42;;
2187;SDS011;1100;52.014;8.540;2022-10-18T15:15:12;5.50;;;1.15;;
2187;SDS011;1100;52.014;8.540;2022-10-18T15:17:42;6.63;;;1.00;;
2187;SDS011;1100;52.014;8.540;2022-10-18T15:20:20;5.50;;;1.23;;
2187;SDS011;1100;52.014;8.540;2022-10-18T15:22:50;7.87;;;1.53;;
2187;SDS011;1100;52.014;8.540;2022-10-18T15:25:20;6.72;;;1.75;;
2187;SDS011;1100;52.014;8.540;2022-10-18T15:27:51;3.85;;;0.90;;
2187;SDS011;1100;52.014;8.540;2022-10-18T15:32:50;7.60;;;1.67;;
2187;SDS011;1100;52.014;8.540;2022-10-18T15:35:20;7.97;;;1.07;;
2187;SDS011;1100;52.014;8.540;2022-10-18T15:37:51;4.68;;;1.10;;
2187;SDS011;1100;52.014;8.540;2022-10-18T15:42:46;7.10;;;1.20;;
2187;SDS011;1100;52.014;8.540;2022-10-18T15:58:50;4.65;;;0.70;;
2187;SDS011;1100;52.014;8.540;2022-10-18T16:01:16;4.83;;;1.10;;
2187;SDS011;1100;52.014;8.540;2022-10-18T16:03:46;5.75;;;1.50;;
2187;SDS011;1100;52.014;8.540;2022-10-18T16:06:13;4.17;;;0.77;;
2187;SDS011;1100;52.014;8.540;2022-10-18T16:08:45;6.63;;;0.88;;
2187;SDS011;1100;52.014;8.540;2022-10-18T16:11:17;6.22;;;1.02;;
2187;SDS011;1100;52.014;8.540;2022-10-18T16:13:45;7.80;;;0.88;;
2187;SDS011;1100;52.014;8.540;2022-10-18T16:16:18;5.28;;;0.80;;
2187;SDS011;1100;52.014;8.540;2022-10-18T16:18:48;6.37;;;0.93;;
2187;SDS011;1100;52.014;8.540;2022-10-18T16:21:30;7.53;;;0.88;;
2187;SDS011;1100;52.014;8.540;2022-10-18T16:23:57;6.13;;;1.05;;
2187;SDS011;1100;52.014;8.540;2022-10-18T16:26:23;9.27;;;1.23;;
2187;SDS011;1100;52.014;8.540;2022-10-18T16:28:50;6.90;;;1.23;;
2187;SDS011;1100;52.014;8.540;2022-10-18T16:31:18;6.18;;;1.35;;
2187;SDS011;1100;52.014;8.540;2022-10-18T16:33:45;5.32;;;0.93;;
2187;SDS011;1100;52.014;8.540;2022-10-18T16:36:16;4.65;;;0.90;;
2187;SDS011;1100;52.014;8.540;2022-10-18T16:38:42;4.77;;;0.83;;
2187;SDS011;1100;52.014;8.540;2022-10-18T16:41:08;5.40;;;0.85;;
2187;SDS011;1100;52.014;8.540;2022-10-18T16:43:34;7.43;;;1.07;;
2187;SDS011;1100;52.014;8.540;2022-10-18T16:46:01;5.30;;;0.85;;
2187;SDS011;1100;52.014;8.540;2022-10-18T16:48:27;4.82;;;0.98;;
2187;SDS011;1100;52.014;8.540;2022-10-18T16:50:53;5.03;;;0.90;;
2187;SDS011;1100;52.014;8.540;2022-10-18T16:53:20;5.93;;;1.00;;
2187;SDS011;1100;52.014;8.540;2022-10-18T16:55:50;5.65;;;0.98;;
2187;SDS011;1100;52.014;8.540;2022-10-18T16:58:17;5.03;;;1.00;;
2187;SDS011;1100;52.014;8.540;2022-10-18T17:00:44;5.53;;;0.80;;
2187;SDS011;1100;52.014;8.540;2022-10-18T17:03:11;5.10;;;0.80;;
2187;SDS011;1100;52.014;8.540;2022-10-18T17:05:37;6.60;;;0.90;;
2187;SDS011;1100;52.014;8.540;2022-10-18T17:08:03;7.30;;;1.45;;
2187;SDS011;1100;52.014;8.540;2022-10-18T17:10:29;6.57;;;1.27;;
2187;SDS011;1100;52.014;8.540;2022-10-18T17:12:54;5.43;;;0.87;;
2187;SDS011;1100;52.014;8.540;2022-10-18T17:15:19;4.82;;;1.02;;
2187;SDS011;1100;52.014;8.540;2022-10-18T17:17:45;5.13;;;1.20;;
2187;SDS011;1100;52.014;8.540;2022-10-18T17:20:15;6.20;;;0.93;;
2187;SDS011;1100;52.014;8.540;2022-10-18T17:22:44;5.70;;;0.95;;
2187;SDS011;1100;52.014;8.540;2022-10-18T17:25:09;6.63;;;1.33;;
2187;SDS011;1100;52.014;8.540;2022-10-18T17:27:34;11.47;;;4.07;;
2187;SDS011;1100;52.014;8.540;2022-10-18T17:30:00;10.68;;;2.83;;
2187;SDS011;1100;52.014;8.540;2022-10-18T17:32:25;7.27;;;1.40;;
2187;SDS011;1100;52.014;8.540;2022-10-18T17:34:50;7.03;;;2.00;;
2187;SDS011;1100;52.014;8.540;2022-10-18T17:37:16;4.73;;;1.33;;
2187;SDS011;1100;52.014;8.540;2022-10-18T17:39:41;6.57;;;1.33;;
2187;SDS011;1100;52.014;8.540;2022-10-18T17:42:10;7.68;;;1.10;;
2187;SDS011;1100;52.014;8.540;2022-10-18T17:44:36;6.45;;;1.10;;
2187;SDS011;1100;52.014;8.540;2022-10-18T17:47:01;6.03;;;1.30;;